createdAt,value
2023-04-02T00:01:22.769Z,101270.09
2023-04-02T00:03:53.718Z,101283.94
2023-04-02T00:06:30.316Z,101288.34
2023-04-02T00:09:04.643Z,101290.91
2023-04-02T00:11:35.809Z,101288.34
2023-04-02T00:14:04.155Z,101298.84
2023-04-02T00:16:31.328Z,101308.34
2023-04-02T00:19:06.436Z,101310.06
2023-04-02T00:21:37.704Z,101307.56
2023-04-02T00:24:14.549Z,101307.63
2023-04-02T00:26:46.367Z,101314.59
2023-04-02T00:29:14.506Z,101319.03
2023-04-02T00:31:50.537Z,101321.75
2023-04-02T00:34:33.678Z,101325.16
2023-04-02T00:37:00.567Z,101323.44
2023-04-02T00:39:30.574Z,101329.53
2023-04-02T00:42:04.982Z,101334.66
2023-04-02T00:44:34.166Z,101349.31
2023-04-02T00:47:26.818Z,101360.88
2023-04-02T00:53:30.980Z,101368.78
2023-04-02T00:56:03.138Z,101363.63
2023-04-02T00:58:35.589Z,101361.09
2023-04-02T01:01:02.227Z,101379.31
2023-04-02T01:03:35.393Z,101383.75
2023-04-02T01:06:10.817Z,101384.63
2023-04-02T01:09:02.533Z,101397.66
2023-04-02T01:11:57.511Z,101395.88
2023-04-02T01:14:42.197Z,101404.63
2023-04-02T01:17:15.528Z,101405.63
2023-04-02T01:20:12.606Z,101415.13
2023-04-02T01:23:05.729Z,101413.44
2023-04-02T01:25:38.356Z,101417.91
2023-04-02T01:28:19.557Z,101424.88
2023-04-02T01:30:52.596Z,101420.59
2023-04-02T01:33:24.497Z,101424.94
2023-04-02T01:35:58.621Z,101433.56
2023-04-02T01:38:34.447Z,101431.00
2023-04-02T01:41:11.952Z,101442.28
2023-04-02T01:43:48.044Z,101434.53
2023-04-02T01:46:30.498Z,101443.28
2023-04-02T01:48:59.842Z,101461.41
2023-04-02T01:51:34.809Z,101457.97
2023-04-02T01:54:04.014Z,101457.22
2023-04-02T01:56:30.837Z,101463.41
2023-04-02T01:58:58.910Z,101463.34
2023-04-02T02:01:36.655Z,101476.38
2023-04-02T02:04:03.250Z,101481.59
2023-04-02T02:06:29.950Z,101483.47
2023-04-02T02:09:03.791Z,101491.25
2023-04-02T02:11:32.523Z,101493.91
2023-04-02T02:14:12.028Z,101494.88
2023-04-02T02:16:42.036Z,101506.16
2023-04-02T02:19:22.178Z,101507.16
2023-04-02T02:21:55.015Z,101509.00
2023-04-02T02:24:29.187Z,101511.72
2023-04-02T02:27:21.344Z,101522.25
2023-04-02T02:29:53.096Z,101520.75
2023-04-02T02:32:22.780Z,101531.28
2023-04-02T02:34:56.867Z,101534.78
2023-04-02T02:37:28.205Z,101536.66
2023-04-02T02:39:58.423Z,101548.06
2023-04-02T02:42:42.106Z,101551.63
2023-04-02T02:45:19.738Z,101549.22
2023-04-02T02:47:47.986Z,101553.53
2023-04-02T02:50:22.139Z,101560.44
2023-04-02T02:52:55.024Z,101565.72
2023-04-02T02:55:37.714Z,101565.75
2023-04-02T02:58:15.983Z,101570.06
2023-04-02T03:00:43.277Z,101585.63
2023-04-02T03:03:14.774Z,101595.19
2023-04-02T03:05:41.827Z,101596.09
2023-04-02T03:08:18.334Z,101598.75
2023-04-02T03:11:01.126Z,101606.53
2023-04-02T03:13:35.794Z,101621.31
2023-04-02T03:16:08.275Z,101614.47
2023-04-02T03:18:50.398Z,101624.00
2023-04-02T03:21:51.079Z,101636.13
2023-04-02T03:24:20.453Z,101626.59
2023-04-02T03:26:56.157Z,101645.66
2023-04-02T03:29:27.059Z,101647.44
2023-04-02T03:31:58.081Z,101656.19
2023-04-02T03:34:29.666Z,101644.13
2023-04-02T03:37:08.263Z,101669.22
2023-04-02T03:39:42.834Z,101671.81
2023-04-02T03:42:21.270Z,101673.63
2023-04-02T03:44:57.286Z,101678.88
2023-04-02T03:47:28.241Z,101689.31
2023-04-02T03:50:11.662Z,101694.50
2023-04-02T03:52:38.526Z,101694.50
2023-04-02T03:55:19.322Z,101706.69
2023-04-02T03:58:07.561Z,101704.94
2023-04-02T04:00:42.398Z,101714.41
2023-04-02T04:03:16.293Z,101718.78
2023-04-02T04:05:52.111Z,101717.13
2023-04-02T04:08:28.578Z,101720.56
2023-04-02T04:10:58.941Z,101735.19
2023-04-02T04:13:35.545Z,101735.28
2023-04-02T04:16:11.622Z,101743.06
2023-04-02T04:18:47.633Z,101754.38
2023-04-02T04:21:37.045Z,101757.03
2023-04-02T04:24:16.149Z,101758.06
2023-04-02T04:27:09.648Z,101768.50
2023-04-02T04:29:58.178Z,101778.91
2023-04-02T04:32:39.094Z,101789.31
2023-04-02T04:35:23.289Z,101797.13
2023-04-02T04:40:33.451Z,101793.88
2023-04-02T04:43:05.675Z,101798.22
2023-04-02T04:45:47.586Z,101802.72
2023-04-02T04:48:21.237Z,101813.97
2023-04-02T04:50:56.009Z,101826.13
2023-04-02T04:53:25.015Z,101828.00
2023-04-02T04:56:06.001Z,101840.91
2023-04-02T04:58:52.941Z,101841.78
2023-04-02T05:01:27.118Z,101845.22
2023-04-02T05:04:02.944Z,101849.63
2023-04-02T05:06:37.580Z,101853.09
2023-04-02T05:09:33.216Z,101861.81
2023-04-02T05:12:12.423Z,101871.50
2023-04-02T05:14:54.176Z,101876.03
2023-04-02T05:17:33.473Z,101886.56
2023-04-02T05:20:16.255Z,101897.00
2023-04-02T05:22:49.216Z,101896.31
2023-04-02T05:25:19.886Z,101902.38
2023-04-02T05:28:12.799Z,101904.25
2023-04-02T05:30:49.635Z,101912.94
2023-04-02T05:33:30.744Z,101925.16
2023-04-02T05:36:11.672Z,101936.38
2023-04-02T05:38:44.106Z,101945.03
2023-04-02T05:41:36.851Z,101936.47
2023-04-02T05:44:16.383Z,101940.00
2023-04-02T05:46:50.924Z,101946.09
2023-04-02T05:49:45.702Z,101949.59
2023-04-02T05:52:19.904Z,101967.69
2023-04-02T05:54:52.136Z,101970.25
2023-04-02T05:57:35.816Z,101978.81
2023-04-02T06:00:18.842Z,101983.13
2023-04-02T06:02:53.709Z,101986.63
2023-04-02T06:05:28.139Z,101992.75
2023-04-02T06:08:06.718Z,102003.16
2023-04-02T06:10:56.041Z,102006.69
2023-04-02T06:13:22.945Z,102019.59
2023-04-02T06:15:49.794Z,102026.53
2023-04-02T06:18:20.771Z,102040.31
2023-04-02T06:20:47.477Z,102043.75
2023-04-02T06:23:38.577Z,102052.34
2023-04-02T06:26:12.928Z,102054.06
2023-04-02T06:28:58.339Z,102054.94
2023-04-02T06:31:44.709Z,102055.78
2023-04-02T06:34:17.180Z,102083.31
2023-04-02T06:36:45.377Z,102079.84
2023-04-02T06:39:20.061Z,102080.72
2023-04-02T06:41:46.725Z,102080.66
2023-04-02T06:44:19.442Z,102095.25
2023-04-02T06:46:52.796Z,102083.25
2023-04-02T06:49:31.301Z,102099.69
2023-04-02T06:52:01.009Z,102096.25
2023-04-02T06:54:27.592Z,102102.22
2023-04-02T06:56:56.354Z,102106.50
2023-04-02T06:59:23.306Z,102116.75
2023-04-02T07:02:01.239Z,102122.78
2023-04-02T07:04:27.777Z,102128.84
2023-04-02T07:06:54.451Z,102140.00
2023-04-02T07:09:21.077Z,102140.84
2023-04-02T07:11:47.476Z,102149.44
2023-04-02T07:14:14.187Z,102158.06
2023-04-02T07:16:42.532Z,102157.19
2023-04-02T07:19:20.050Z,102162.38
2023-04-02T07:21:46.723Z,102164.00
2023-04-02T07:24:13.287Z,102182.94
2023-04-02T07:26:39.806Z,102179.53
2023-04-02T07:29:15.904Z,102186.47
2023-04-02T07:31:43.014Z,102190.75
2023-04-02T07:34:10.324Z,102196.88
2023-04-02T07:36:36.884Z,102211.56
2023-04-02T07:39:04.194Z,102204.66
2023-04-02T07:41:30.636Z,102214.16
2023-04-02T07:43:57.106Z,102218.44
2023-04-02T07:46:24.519Z,102215.84
2023-04-02T07:48:51.016Z,102218.50
2023-04-02T07:51:23.472Z,102220.16
2023-04-02T07:53:51.148Z,102225.28
2023-04-02T07:56:19.798Z,102235.66
2023-04-02T07:58:47.038Z,102234.81
2023-04-02T08:01:27.816Z,102227.94
2023-04-02T08:03:56.560Z,102235.59
2023-04-02T08:06:24.340Z,102239.03
2023-04-02T08:08:50.914Z,102245.97
2023-04-02T08:11:17.904Z,102247.72
2023-04-02T08:13:44.953Z,102249.41
2023-04-02T08:16:11.678Z,102255.44
2023-04-02T08:18:38.660Z,102258.00
2023-04-02T08:21:09.659Z,102264.84
2023-04-02T08:23:37.291Z,102265.59
2023-04-02T08:26:04.862Z,102265.56
2023-04-02T08:28:31.420Z,102272.47
2023-04-02T08:30:57.890Z,102284.63
2023-04-02T08:33:24.399Z,102297.59
2023-04-02T08:35:51.118Z,102299.22
2023-04-02T08:38:19.624Z,102307.84
2023-04-02T08:40:50.419Z,102308.66
2023-04-02T08:43:28.681Z,102312.03
2023-04-02T08:46:00.677Z,102309.47
2023-04-02T08:48:27.910Z,102316.38
2023-04-02T08:50:54.682Z,102329.41
2023-04-02T08:53:24.482Z,102331.13
2023-04-02T08:55:55.706Z,102336.19
2023-04-02T08:58:41.461Z,102335.25
2023-04-02T09:01:19.828Z,102340.34
2023-04-02T09:03:49.638Z,102345.63
2023-04-02T09:06:19.216Z,102355.09
2023-04-02T09:08:48.698Z,102362.00
2023-04-02T09:11:21.545Z,102360.19
2023-04-02T09:13:54.469Z,102366.28
2023-04-02T09:16:33.228Z,102360.28
2023-04-02T09:19:01.082Z,102367.88
2023-04-02T09:21:36.973Z,102370.47
2023-04-02T09:24:05.327Z,102371.34
2023-04-02T09:26:33.295Z,102383.25
2023-04-02T09:29:15.870Z,102388.28
2023-04-02T09:32:18.315Z,102397.78
2023-04-02T09:34:44.735Z,102400.28
2023-04-02T09:37:25.751Z,102402.03
2023-04-02T09:39:53.442Z,102412.28
2023-04-02T09:42:30.754Z,102409.63
2023-04-02T09:45:21.400Z,102406.97
2023-04-02T09:47:48.687Z,102407.91
2023-04-02T09:50:15.414Z,102397.97
2023-04-02T09:52:41.956Z,102399.41
2023-04-02T09:55:14.502Z,102407.53
2023-04-02T09:57:41.415Z,102408.41
2023-04-02T10:00:29.861Z,102407.94
2023-04-02T10:03:26.036Z,102412.13
2023-04-02T10:06:04.196Z,102415.94
2023-04-02T10:08:31.921Z,102419.97
2023-04-02T10:11:01.804Z,102418.50
2023-04-02T10:13:43.308Z,102429.91
2023-04-02T10:16:16.434Z,102427.09
2023-04-02T10:18:54.117Z,102430.34
2023-04-02T10:21:28.282Z,102434.47
2023-04-02T10:23:55.659Z,102424.59
2023-04-02T10:26:55.478Z,102441.97
2023-04-02T10:29:24.792Z,102435.78
2023-04-02T10:32:09.419Z,102428.63
2023-04-02T10:34:58.221Z,102436.28
2023-04-02T10:37:59.280Z,102438.47
2023-04-02T10:40:35.671Z,102435.53
2023-04-02T10:43:12.259Z,102447.88
2023-04-02T10:45:47.863Z,102443.63
2023-04-02T10:48:41.609Z,102448.59
2023-04-02T10:51:43.114Z,102449.13
2023-04-02T10:54:24.711Z,102447.59
2023-04-02T10:56:53.310Z,102442.63
2023-04-02T10:59:26.123Z,102446.06
2023-04-02T11:01:56.767Z,102446.53
2023-04-02T11:04:36.390Z,102452.16
2023-04-02T11:07:14.481Z,102451.91
2023-04-02T11:09:45.996Z,102451.31
2023-04-02T11:12:23.777Z,102461.84
2023-04-02T11:14:52.128Z,102464.75
2023-04-02T11:17:19.243Z,102465.66
2023-04-02T11:19:46.030Z,102465.69
2023-04-02T11:22:23.048Z,102475.25
2023-04-02T11:24:55.217Z,102474.97
2023-04-02T11:27:27.837Z,102470.47
2023-04-02T11:30:03.927Z,102474.63
2023-04-02T11:32:39.060Z,102474.00
2023-04-02T11:35:33.339Z,102482.41
2023-04-02T11:38:12.274Z,102489.69
2023-04-02T11:40:49.705Z,102486.19
2023-04-02T11:43:34.419Z,102494.03
2023-04-02T11:46:23.535Z,102496.47
2023-04-02T11:48:55.082Z,102505.00
2023-04-02T11:51:27.869Z,102497.66
2023-04-02T11:53:55.000Z,102497.59
2023-04-02T11:56:35.764Z,102506.38
2023-04-02T11:59:27.308Z,102511.34
2023-04-02T12:02:30.318Z,102510.22
2023-04-02T12:05:23.674Z,102513.66
2023-04-02T12:08:08.082Z,102506.75
2023-04-02T12:10:54.217Z,102513.06
2023-04-02T12:13:41.584Z,102505.53
2023-04-02T12:16:13.035Z,102508.09
2023-04-02T12:18:46.722Z,102521.03
2023-04-02T12:21:22.612Z,102531.53
2023-04-02T12:23:52.533Z,102520.22
2023-04-02T12:26:37.505Z,102534.50
2023-04-02T12:29:26.531Z,102537.38
2023-04-02T12:31:58.673Z,102539.63
2023-04-02T12:34:27.754Z,102546.91
2023-04-02T12:36:59.834Z,102536.94
2023-04-02T12:39:28.100Z,102530.41
2023-04-02T12:41:55.879Z,102533.91
2023-04-02T12:44:27.601Z,102533.75
2023-04-02T12:46:54.776Z,102539.88
2023-04-02T12:49:41.352Z,102530.81
2023-04-02T12:52:11.545Z,102542.47
2023-04-02T12:54:59.102Z,102545.41
2023-04-02T12:57:25.807Z,102544.72
2023-04-02T12:59:54.167Z,102554.16
2023-04-02T13:02:25.694Z,102556.84
2023-04-02T13:04:55.007Z,102543.66
2023-04-02T13:07:25.743Z,102544.50
2023-04-02T13:09:58.643Z,102550.28
2023-04-02T13:12:39.245Z,102556.25
2023-04-02T13:15:22.139Z,102556.34
2023-04-02T13:18:07.036Z,102556.69
2023-04-02T13:20:39.091Z,102559.78
2023-04-02T13:23:45.852Z,102557.97
2023-04-02T13:26:21.963Z,102561.16
2023-04-02T13:29:23.975Z,102557.88
2023-04-02T13:31:52.187Z,102559.44
2023-04-02T13:34:18.800Z,102552.59
2023-04-02T13:36:45.683Z,102570.81
2023-04-02T13:39:12.469Z,102562.81
2023-04-02T13:41:44.500Z,102566.44
2023-04-02T13:44:25.899Z,102563.22
2023-04-02T13:46:54.050Z,102562.34
2023-04-02T13:49:21.966Z,102572.41
2023-04-02T13:52:10.006Z,102569.31
2023-04-02T13:54:45.497Z,102568.09
2023-04-02T13:57:12.335Z,102574.09
2023-04-02T13:59:38.921Z,102579.34
2023-04-02T14:02:17.043Z,102575.22
2023-04-02T14:04:52.411Z,102575.31
2023-04-02T14:07:29.071Z,102584.13
2023-04-02T14:10:01.552Z,102585.44
2023-04-02T14:12:46.742Z,102596.50
2023-04-02T14:15:43.619Z,102587.97
2023-04-02T14:18:48.308Z,102589.41
2023-04-02T14:21:33.126Z,102585.72
2023-04-02T14:24:06.030Z,102590.63
2023-04-02T14:26:43.289Z,102589.72
2023-04-02T14:29:16.015Z,102589.03
2023-04-02T14:32:30.419Z,102600.94
2023-04-02T14:35:16.610Z,102594.72
2023-04-02T14:37:52.644Z,102601.69
2023-04-02T14:40:22.425Z,102599.38
2023-04-02T14:43:07.015Z,102595.09
2023-04-02T14:45:54.963Z,102611.09
2023-04-02T14:48:35.970Z,102623.00
2023-04-02T14:51:12.503Z,102622.03
2023-04-02T14:53:49.773Z,102622.97
2023-04-02T14:56:19.635Z,102626.44
2023-04-02T14:58:51.820Z,102626.09
2023-04-02T15:01:34.238Z,102615.56
2023-04-02T15:04:04.588Z,102614.47
2023-04-02T15:06:36.782Z,102627.63
2023-04-02T15:09:19.480Z,102620.78
2023-04-02T15:11:52.987Z,102620.53
2023-04-02T15:14:23.702Z,102630.91
2023-04-02T15:16:50.353Z,102641.56
2023-04-02T15:19:18.091Z,102642.72
2023-04-02T15:22:01.110Z,102640.31
2023-04-02T15:24:34.050Z,102638.91
2023-04-02T15:27:27.384Z,102642.63
2023-04-02T15:30:07.440Z,102638.81
2023-04-02T15:32:34.019Z,102637.97
2023-04-02T15:35:32.349Z,102638.06
2023-04-02T15:38:07.613Z,102636.03
2023-04-02T15:41:08.526Z,102640.53
2023-04-02T15:44:02.020Z,102648.72
2023-04-02T15:46:53.263Z,102651.16
2023-04-02T15:50:01.848Z,102657.91
2023-04-02T15:52:34.274Z,102654.78
2023-04-02T15:55:29.012Z,102657.31
2023-04-02T15:58:28.678Z,102656.47
2023-04-02T16:01:08.455Z,102653.38
2023-04-02T16:03:49.837Z,102647.28
2023-04-02T16:06:32.350Z,102656.78
2023-04-02T16:09:14.049Z,102654.50
2023-04-02T16:11:43.160Z,102655.34
2023-04-02T16:14:42.295Z,102658.88
2023-04-02T16:17:24.906Z,102671.09
2023-04-02T16:20:14.903Z,102679.03
2023-04-02T16:22:59.324Z,102681.00
2023-04-02T16:25:31.993Z,102680.03
2023-04-02T16:28:20.084Z,102683.84
2023-04-02T16:30:56.538Z,102683.94
2023-04-02T16:33:31.114Z,102679.56
2023-04-02T16:36:11.525Z,102691.75
2023-04-02T16:38:59.253Z,102688.38
2023-04-02T16:41:44.979Z,102691.16
2023-04-02T16:44:35.796Z,102701.59
2023-04-02T16:47:11.218Z,102701.59
2023-04-02T16:49:55.837Z,102709.53
2023-04-02T16:52:41.213Z,102712.22
2023-04-02T16:55:46.479Z,102719.97
2023-04-02T16:58:19.301Z,102729.63
2023-04-02T17:00:57.631Z,102731.31
2023-04-02T17:03:51.039Z,102726.25
2023-04-02T17:06:42.370Z,102734.41
2023-04-02T17:09:23.569Z,102733.66
2023-04-02T17:11:56.119Z,102745.00
2023-04-02T17:14:54.614Z,102752.75
2023-04-02T17:17:22.728Z,102761.44
2023-04-02T17:19:53.379Z,102762.44
2023-04-02T17:22:22.679Z,102760.81
2023-04-02T17:24:56.045Z,102762.63
2023-04-02T17:27:32.625Z,102766.22
2023-04-02T17:30:05.405Z,102768.94
2023-04-02T17:32:33.773Z,102772.50
2023-04-02T17:35:25.104Z,102774.34
2023-04-02T17:38:05.386Z,102778.72
2023-04-02T17:41:02.803Z,102777.94
2023-04-02T17:43:50.395Z,102786.78
2023-04-02T17:46:43.322Z,102790.47
2023-04-02T17:49:09.776Z,102787.09
2023-04-02T17:51:58.268Z,102796.78
2023-04-02T17:54:40.562Z,102807.28
2023-04-02T17:57:21.865Z,102811.75
2023-04-02T17:59:57.523Z,102811.81
2023-04-02T18:02:38.398Z,102823.16
2023-04-02T18:05:25.045Z,102827.56
2023-04-02T18:08:03.667Z,102827.63
2023-04-02T18:11:09.510Z,102821.63
2023-04-02T18:13:42.055Z,102829.59
2023-04-02T18:16:15.992Z,102843.47
2023-04-02T18:19:03.416Z,102834.00
2023-04-02T18:21:46.527Z,102840.19
2023-04-02T18:24:28.086Z,102842.88
2023-04-02T18:27:12.981Z,102853.44
2023-04-02T18:29:48.965Z,102852.72
2023-04-02T18:32:40.381Z,102864.94
2023-04-02T18:35:10.715Z,102864.13
2023-04-02T18:38:15.285Z,102871.22
2023-04-02T18:41:01.700Z,102873.13
2023-04-02T18:44:13.615Z,102873.22
2023-04-02T18:47:02.444Z,102876.72
2023-04-02T18:49:36.845Z,102886.31
2023-04-02T18:52:16.048Z,102889.00
2023-04-02T18:55:00.423Z,102890.84
2023-04-02T18:57:33.950Z,102896.91
2023-04-02T19:00:16.677Z,102902.19
2023-04-02T19:03:17.087Z,102907.47
2023-04-02T19:05:51.292Z,102900.53
2023-04-02T19:08:28.793Z,102919.56
2023-04-02T19:11:00.541Z,102922.22
2023-04-02T19:13:27.135Z,102934.34
2023-04-02T19:16:09.142Z,102936.22
2023-04-02T19:18:45.852Z,102943.19
2023-04-02T19:21:33.988Z,102941.50
2023-04-02T19:24:15.672Z,102949.34
2023-04-02T19:26:49.099Z,102952.88
2023-04-02T19:29:33.540Z,102952.03
2023-04-02T19:32:07.031Z,102959.94
2023-04-02T19:34:53.158Z,102958.28
2023-04-02T19:37:33.254Z,102953.94
2023-04-02T19:40:13.011Z,102958.38
2023-04-02T19:42:44.395Z,102958.38
2023-04-02T19:45:32.867Z,102964.50
2023-04-02T19:48:03.284Z,102962.78
2023-04-02T19:50:29.997Z,102969.75
2023-04-02T19:52:56.527Z,102968.91
2023-04-02T19:55:23.106Z,102972.38
2023-04-02T19:57:49.861Z,102972.38
2023-04-02T20:00:17.611Z,102985.38
2023-04-02T20:02:44.148Z,102984.56
2023-04-02T20:05:11.347Z,102981.97
2023-04-02T20:07:37.850Z,102981.19
2023-04-02T20:10:04.734Z,102985.53
2023-04-02T20:12:31.501Z,102988.13
2023-04-02T20:14:58.034Z,102982.09
2023-04-02T20:17:24.537Z,102990.78
2023-04-02T20:19:57.124Z,102993.41
2023-04-02T20:22:23.906Z,102990.00
2023-04-02T20:24:51.203Z,102991.78
2023-04-02T20:27:17.843Z,103003.00
2023-04-02T20:29:44.314Z,102996.13
2023-04-02T20:32:12.788Z,103010.00
2023-04-02T20:34:39.350Z,103009.16
2023-04-02T20:37:06.624Z,103012.66
2023-04-02T20:39:33.039Z,103023.06
2023-04-02T20:42:02.633Z,103026.56
2023-04-02T20:44:29.348Z,103021.38
2023-04-02T20:46:56.184Z,103025.78
2023-04-02T20:49:22.899Z,103032.75
2023-04-02T20:51:49.623Z,103037.06
2023-04-02T20:54:16.085Z,103036.22
2023-04-02T20:56:43.112Z,103040.56
2023-04-02T20:59:09.543Z,103032.78
2023-04-02T21:01:36.000Z,103041.44
2023-04-02T21:04:03.989Z,103051.00
2023-04-02T21:06:33.347Z,103043.25
2023-04-02T21:09:02.243Z,103053.63
2023-04-02T21:11:28.842Z,103058.00
2023-04-02T21:13:55.471Z,103067.53
2023-04-02T21:16:31.630Z,103058.88
2023-04-02T21:19:01.582Z,103065.88
2023-04-02T21:21:28.478Z,103066.72
2023-04-02T21:23:57.905Z,103066.69
2023-04-02T21:26:24.339Z,103071.91
2023-04-02T21:28:50.782Z,103080.56
2023-04-02T21:31:20.857Z,103080.59
2023-04-02T21:33:50.345Z,103078.88
2023-04-02T21:36:25.841Z,103086.66
2023-04-02T21:38:54.853Z,103091.00
2023-04-02T21:41:24.116Z,103090.16
2023-04-02T21:43:50.917Z,103091.91
2023-04-02T21:46:19.610Z,103090.16
2023-04-02T21:48:46.620Z,103087.56
2023-04-02T21:51:15.906Z,103095.38
2023-04-02T21:53:43.205Z,103093.63
2023-04-02T21:56:16.535Z,103095.38
2023-04-02T21:58:44.210Z,103096.25
2023-04-02T22:01:23.771Z,103097.13
2023-04-02T22:03:53.961Z,103098.00
2023-04-02T22:06:22.067Z,103098.88
2023-04-02T22:08:54.334Z,103094.53
2023-04-02T22:11:24.822Z,103097.13
2023-04-02T22:13:51.296Z,103089.34
2023-04-02T22:16:20.768Z,103096.28
2023-04-02T22:18:48.467Z,103099.75
2023-04-02T22:21:15.961Z,103109.25
2023-04-02T22:23:43.016Z,103096.28
2023-04-02T22:26:11.638Z,103105.81
2023-04-02T22:28:38.489Z,103107.53
2023-04-02T22:31:07.732Z,103102.34
2023-04-02T22:33:35.679Z,103100.63
2023-04-02T22:36:02.915Z,103104.06
2023-04-02T22:38:29.400Z,103103.22
2023-04-02T22:41:11.873Z,103107.53
2023-04-02T22:43:39.254Z,103104.06
2023-04-02T22:46:08.208Z,103102.34
2023-04-02T22:48:36.549Z,103115.28
2023-04-02T22:51:03.884Z,103110.94
2023-04-02T22:53:31.650Z,103107.50
2023-04-02T22:56:22.530Z,103121.31
2023-04-02T22:58:49.491Z,103115.28
2023-04-02T23:01:18.126Z,103121.28
2023-04-02T23:03:44.905Z,103118.72
2023-04-02T23:06:14.557Z,103128.19
2023-04-02T23:08:41.501Z,103121.28
2023-04-02T23:11:11.056Z,103126.44
2023-04-02T23:13:38.780Z,103127.31
2023-04-02T23:16:07.904Z,103120.41
2023-04-02T23:18:35.781Z,103123.00
2023-04-02T23:21:02.793Z,103128.16
2023-04-02T23:23:31.475Z,103122.97
2023-04-02T23:26:11.750Z,103123.84
2023-04-02T23:28:39.461Z,103125.56
2023-04-02T23:31:08.337Z,103123.81
2023-04-02T23:33:35.582Z,103127.25
2023-04-02T23:36:16.351Z,103133.28
2023-04-02T23:38:42.937Z,103131.53
2023-04-02T23:41:14.409Z,103131.53
2023-04-02T23:43:41.030Z,103127.22
2023-04-02T23:46:07.470Z,103133.25
2023-04-02T23:48:34.123Z,103131.50
2023-04-02T23:51:00.546Z,103135.78
2023-04-02T23:53:26.968Z,103135.78
2023-04-02T23:55:53.393Z,103140.94
2023-04-02T23:58:19.820Z,103140.06
